Terminal Aerodrome Forecast
Issued by NWS

Home | Current Version | Previous Version | Text Only | Print | Product List | Glossary On
Versions: 1 2 3 4 5 6 7 8 9 10 11 12 13 14 15 16 17 18
000
FTUS43 KGRB 240520
TAFAUW
TAF
KAUW 240520Z 2406/2506 29007KT P6SM SCT020
      TEMPO 2406/2408 3SM BR SCT006
     FM240800 VRB03KT 1SM BR SCT006
      TEMPO 2408/2412 1/2SM FG BKN004
     FM241400 08004KT P6SM BKN008
     FM241600 10006KT P6SM SCT050 SCT150
     FM241900 10010KT P6SM SCT030 BKN070
     FM242100 10010G19KT P6SM OVC030
     FM250000 10013G25KT P6SM -RASN OVC015
     FM250200 10015G30KT 1SM -SN OVC010 WS020/12045KT=

USA.gov is the U.S. government's official web portal to all federal, state and local government web resources and services.